Somersworth, New Hampshire
Current Conditions -  °F | °C
As of 9:02 AM on Thursday 23 Oct 2014 (Local Time) from KDAW Reporting Station
Light Rain Light Rain  
Wind Chill: 42°   Ceiling: 1000
Heat Index: 49°   Visibility: 9mi
Dew Point: 46°   Wind: 20mph
Humidity: 90%   Direction: 10°N
Pressure: 29.71"   Gusts: 31mph
Location:  43.26°N, 70.86°W
Report Text: KDAW 231302Z AUTO 01017G27KT 9SM -RA BKN010 OVC014 09/08 A2971 RMK AO2 PK WND 01027/1301 LTG DSNT SE CIG 008V013 P0000 T00940078
Loading
Personal Weather Stations






























Interactive Weather Map
Tropical Storm Tracking
New forecast layout! Learn more

10-Day Weather Forecast

Advertisements
Track Severe Weather on mobile